createdAt,value
2023-05-12T00:00:31.648Z,79.92
2023-05-12T00:03:12.465Z,80.42
2023-05-12T00:05:39.711Z,80.18
2023-05-12T00:08:07.498Z,80.39
2023-05-12T00:10:35.745Z,80.43
2023-05-12T00:13:03.650Z,80.35
2023-05-12T00:15:30.707Z,80.60
2023-05-12T00:17:59.544Z,80.72
2023-05-12T00:20:27.056Z,80.56
2023-05-12T00:22:54.388Z,80.86
2023-05-12T00:25:21.435Z,81.01
2023-05-12T00:27:48.757Z,81.13
2023-05-12T00:30:16.004Z,81.84
2023-05-12T00:32:43.505Z,81.86
2023-05-12T00:35:10.525Z,81.95
2023-05-12T00:37:38.081Z,81.60
2023-05-12T00:40:05.619Z,81.74
2023-05-12T00:42:35.182Z,81.97
2023-05-12T00:45:03.404Z,81.83
2023-05-12T00:47:31.135Z,82.21
2023-05-12T00:50:00.555Z,82.72
2023-05-12T00:52:28.078Z,82.59
2023-05-12T00:54:55.560Z,82.73
2023-05-12T00:57:26.006Z,82.60
2023-05-12T00:59:52.996Z,82.69
2023-05-12T01:02:20.899Z,82.91
2023-05-12T01:04:48.038Z,83.52
2023-05-12T01:07:22.923Z,83.85
2023-05-12T01:09:57.439Z,84.02
2023-05-12T01:12:25.642Z,83.59
2023-05-12T01:14:55.247Z,83.59
2023-05-12T01:17:36.124Z,83.76
2023-05-12T01:20:07.358Z,83.82
2023-05-12T01:22:36.706Z,84.15
2023-05-12T01:25:08.152Z,84.37
2023-05-12T01:27:39.704Z,84.00
2023-05-12T01:30:07.971Z,84.17
2023-05-12T01:32:37.056Z,84.05
2023-05-12T01:35:04.544Z,84.11
2023-05-12T01:37:32.023Z,84.43
2023-05-12T01:39:59.055Z,84.31
2023-05-12T01:42:26.516Z,84.27
2023-05-12T01:44:53.504Z,84.55
2023-05-12T01:47:21.757Z,85.14
2023-05-12T01:49:49.072Z,85.23
2023-05-12T01:52:16.484Z,85.42
2023-05-12T01:54:43.496Z,85.63
2023-05-12T01:57:10.927Z,85.89
2023-05-12T01:59:37.930Z,86.07
2023-05-12T02:02:05.930Z,85.67
2023-05-12T02:04:33.179Z,86.10
2023-05-12T02:07:01.091Z,86.00
2023-05-12T02:09:28.017Z,86.29
2023-05-12T02:11:55.430Z,86.21
2023-05-12T02:14:22.479Z,86.19
2023-05-12T02:22:26.540Z,86.22
2023-05-12T02:24:53.619Z,86.34
2023-05-12T02:27:20.979Z,86.11
2023-05-12T02:29:48.082Z,86.30
2023-05-12T02:32:15.458Z,86.17
2023-05-12T02:34:42.481Z,86.33
2023-05-12T02:37:11.645Z,86.13
2023-05-12T02:39:38.678Z,86.27
2023-05-12T02:42:07.262Z,86.30
2023-05-12T02:44:34.402Z,86.53
2023-05-12T02:47:01.875Z,86.67
2023-05-12T02:49:28.877Z,86.60
2023-05-12T02:54:40.184Z,87.15
2023-05-12T02:57:07.700Z,87.49
2023-05-12T02:59:34.716Z,87.49
2023-05-12T03:02:02.469Z,88.18
2023-05-12T03:04:30.621Z,88.63
2023-05-12T03:06:58.044Z,89.60
2023-05-12T03:09:25.677Z,90.55
2023-05-12T03:11:53.055Z,92.09
2023-05-12T03:14:20.043Z,93.21
2023-05-12T03:16:47.602Z,93.98
2023-05-12T03:19:14.736Z,94.15
2023-05-12T03:21:42.516Z,93.79
2023-05-12T03:24:09.750Z,93.09
2023-05-12T03:26:37.227Z,93.19
2023-05-12T03:29:04.228Z,90.57
2023-05-12T03:31:31.600Z,85.30
2023-05-12T03:33:58.602Z,81.56
2023-05-12T03:36:27.112Z,78.94
2023-05-12T03:38:54.194Z,77.23
2023-05-12T03:41:22.159Z,76.26
2023-05-12T03:43:49.510Z,74.24
2023-05-12T03:46:16.960Z,73.77
2023-05-12T03:48:44.087Z,73.66
2023-05-12T03:51:11.624Z,73.80
2023-05-12T03:53:44.703Z,74.35
2023-05-12T03:56:12.292Z,74.09
2023-05-12T03:58:40.772Z,72.23
2023-05-12T04:01:08.740Z,71.15
2023-05-12T04:03:36.131Z,70.36
2023-05-12T04:06:04.643Z,69.64
2023-05-12T04:08:31.761Z,67.02
2023-05-12T04:11:01.150Z,65.27
2023-05-12T04:13:35.535Z,64.40
2023-05-12T04:16:07.289Z,63.10
2023-05-12T04:18:40.342Z,62.21
2023-05-12T04:21:10.344Z,62.20
2023-05-12T04:23:37.550Z,61.64
2023-05-12T04:26:05.452Z,59.82
2023-05-12T04:28:32.718Z,59.58
2023-05-12T04:31:06.846Z,58.47
2023-05-12T04:33:33.904Z,57.55
2023-05-12T04:36:02.655Z,57.45
2023-05-12T04:38:30.017Z,54.78
2023-05-12T04:40:59.301Z,53.27
2023-05-12T04:46:00.350Z,53.48
2023-05-12T04:48:48.224Z,52.78
2023-05-12T04:51:39.485Z,52.09
2023-05-12T04:54:16.293Z,50.89
2023-05-12T04:56:49.614Z,50.61
2023-05-12T04:59:20.131Z,49.53
2023-05-12T05:01:48.655Z,48.22
2023-05-12T05:04:21.058Z,45.78
2023-05-12T05:06:52.461Z,44.78
2023-05-12T05:09:19.977Z,45.89
2023-05-12T05:11:47.760Z,45.98
2023-05-12T05:14:17.454Z,45.73
2023-05-12T05:16:46.007Z,44.64
2023-05-12T05:19:21.454Z,43.97
2023-05-12T05:21:58.233Z,43.75
2023-05-12T05:24:26.634Z,43.53
2023-05-12T05:26:54.106Z,42.17
2023-05-12T05:29:29.185Z,42.49
2023-05-12T05:31:56.863Z,41.95
2023-05-12T05:34:24.541Z,40.94
2023-05-12T05:36:56.165Z,41.89
2023-05-12T05:39:25.626Z,41.67
2023-05-12T05:41:52.730Z,41.52
2023-05-12T05:44:20.228Z,41.76
2023-05-12T05:46:50.028Z,42.73
2023-05-12T05:49:18.812Z,43.27
2023-05-12T05:51:46.711Z,44.45
2023-05-12T05:54:17.129Z,45.51
2023-05-12T05:56:44.229Z,46.33
2023-05-12T05:59:14.326Z,46.67
2023-05-12T06:01:42.005Z,47.07
2023-05-12T06:04:12.196Z,47.79
2023-05-12T06:06:39.878Z,48.48
2023-05-12T06:09:09.723Z,49.08
2023-05-12T06:11:36.970Z,49.47
2023-05-12T06:14:05.165Z,49.86
2023-05-12T06:16:33.090Z,50.31
2023-05-12T06:19:00.941Z,50.64
2023-05-12T06:21:28.202Z,50.68
2023-05-12T06:23:57.069Z,50.62
2023-05-12T06:26:24.153Z,51.28
2023-05-12T06:28:51.897Z,51.22
2023-05-12T06:31:19.158Z,51.14
2023-05-12T06:33:46.774Z,51.26
2023-05-12T06:36:14.183Z,51.55
2023-05-12T06:38:42.354Z,50.16
2023-05-12T06:41:09.497Z,50.14
2023-05-12T06:43:37.015Z,50.02
2023-05-12T06:46:04.201Z,49.64
2023-05-12T06:48:31.745Z,49.55
2023-05-12T06:50:58.932Z,47.92
2023-05-12T06:53:28.509Z,46.45
2023-05-12T06:55:56.320Z,46.14
2023-05-12T06:58:24.415Z,45.75
2023-05-12T07:03:37.213Z,46.13
2023-05-12T07:06:04.853Z,45.33
2023-05-12T07:08:32.435Z,44.79
2023-05-12T07:11:02.593Z,43.54
2023-05-12T07:13:30.142Z,43.06
2023-05-12T07:15:57.234Z,42.44
2023-05-12T07:18:25.284Z,41.57
2023-05-12T07:20:52.507Z,41.46
2023-05-12T07:23:22.605Z,40.92
2023-05-12T07:25:49.782Z,40.43
2023-05-12T07:28:17.819Z,40.19
2023-05-12T07:30:44.956Z,40.60
2023-05-12T07:33:13.016Z,40.10
2023-05-12T07:36:01.092Z,39.76
2023-05-12T07:38:46.366Z,37.05
2023-05-12T07:41:13.761Z,35.49
2023-05-12T07:43:40.857Z,34.51
2023-05-12T07:46:11.108Z,35.74
2023-05-12T07:48:40.328Z,35.32
2023-05-12T07:51:08.688Z,34.89
2023-05-12T07:53:37.927Z,34.85
2023-05-12T07:56:07.759Z,33.04
2023-05-12T07:58:35.630Z,33.15
2023-05-12T08:01:06.141Z,31.34
2023-05-12T08:03:35.265Z,29.11
2023-05-12T08:06:04.889Z,28.86
2023-05-12T08:08:32.090Z,28.67
2023-05-12T08:11:00.186Z,29.11
2023-05-12T08:13:28.819Z,29.15
2023-05-12T08:15:56.281Z,30.98
2023-05-12T08:18:23.461Z,31.41
2023-05-12T08:20:51.170Z,30.98
2023-05-12T08:23:18.586Z,30.11
2023-05-12T08:25:48.657Z,26.70
2023-05-12T08:31:01.494Z,27.19
2023-05-12T08:33:29.926Z,26.83
2023-05-12T08:35:57.445Z,27.78
2023-05-12T08:38:24.753Z,28.14
2023-05-12T08:41:19.648Z,26.98
2023-05-12T08:43:50.250Z,28.00
2023-05-12T08:46:33.064Z,28.12
2023-05-12T08:49:05.129Z,28.33
2023-05-12T08:51:33.350Z,27.47
2023-05-12T08:54:01.004Z,26.47
2023-05-12T08:59:01.494Z,25.44
2023-05-12T09:01:30.522Z,23.40
2023-05-12T09:03:57.718Z,21.63
2023-05-12T09:06:25.478Z,21.78
2023-05-12T09:08:52.994Z,21.71
2023-05-12T09:11:22.204Z,22.38
2023-05-12T09:14:07.360Z,23.74
2023-05-12T09:16:44.772Z,22.88
2023-05-12T09:19:12.161Z,24.13
2023-05-12T09:21:42.506Z,24.32
2023-05-12T09:24:15.050Z,23.94
2023-05-12T09:27:03.728Z,24.67
2023-05-12T09:29:33.498Z,24.91
2023-05-12T09:32:06.376Z,24.29
2023-05-12T09:34:37.233Z,23.91
2023-05-12T09:37:32.686Z,23.61
2023-05-12T09:40:11.646Z,23.28
2023-05-12T09:42:38.947Z,22.97
2023-05-12T09:45:09.480Z,21.74
2023-05-12T09:47:39.738Z,20.76
2023-05-12T09:50:08.942Z,21.30
2023-05-12T09:52:39.857Z,20.78
2023-05-12T09:55:13.415Z,20.79
2023-05-12T09:57:42.696Z,19.50
2023-05-12T10:00:31.286Z,19.51
2023-05-12T10:03:07.832Z,18.25
2023-05-12T10:05:37.284Z,17.19
2023-05-12T10:08:08.383Z,17.63
2023-05-12T10:10:37.321Z,17.84
2023-05-12T10:13:09.985Z,17.80
2023-05-12T10:15:38.472Z,17.87
2023-05-12T10:18:05.812Z,17.66
2023-05-12T10:20:38.790Z,18.00
2023-05-12T10:23:07.412Z,18.13
2023-05-12T10:25:37.376Z,18.81
2023-05-12T10:28:05.282Z,19.53
2023-05-12T10:30:33.554Z,20.31
2023-05-12T10:33:02.006Z,20.60
2023-05-12T10:35:34.976Z,21.32
2023-05-12T10:38:06.536Z,21.46
2023-05-12T10:40:34.405Z,21.39
2023-05-12T10:43:01.953Z,21.67
2023-05-12T10:45:36.706Z,21.72
2023-05-12T10:48:08.453Z,22.60
2023-05-12T10:50:36.057Z,22.30
2023-05-12T10:53:03.166Z,22.01
2023-05-12T10:55:52.557Z,20.88
2023-05-12T11:01:10.750Z,19.75
2023-05-12T11:03:39.772Z,19.11
2023-05-12T11:06:10.359Z,19.04
2023-05-12T11:08:37.916Z,20.09
2023-05-12T11:11:43.456Z,20.54
2023-05-12T11:14:12.338Z,20.61
2023-05-12T11:17:12.901Z,19.04
2023-05-12T11:19:44.843Z,19.14
2023-05-12T11:22:13.588Z,18.59
2023-05-12T11:24:42.465Z,18.49
2023-05-12T11:27:14.878Z,18.44
2023-05-12T11:29:45.012Z,19.07
2023-05-12T11:32:15.689Z,19.84
2023-05-12T11:34:43.228Z,20.33
2023-05-12T11:37:20.227Z,20.80
2023-05-12T11:42:50.270Z,20.64
2023-05-12T11:45:24.661Z,19.65
2023-05-12T11:47:54.132Z,19.96
2023-05-12T11:50:23.127Z,20.27
2023-05-12T11:52:51.741Z,21.42
2023-05-12T11:55:24.669Z,20.54
2023-05-12T11:58:01.215Z,20.96
2023-05-12T12:00:34.879Z,21.42
2023-05-12T12:03:13.704Z,21.18
2023-05-12T12:06:01.578Z,21.33
2023-05-12T12:08:29.064Z,21.34
2023-05-12T12:10:56.854Z,21.66
2023-05-12T12:13:25.993Z,21.49
2023-05-12T12:15:56.209Z,21.06
2023-05-12T12:18:24.874Z,21.50
2023-05-12T12:20:53.659Z,22.16
2023-05-12T12:23:20.965Z,22.49
2023-05-12T12:25:48.521Z,22.14
2023-05-12T12:28:15.948Z,22.58
2023-05-12T12:30:45.141Z,22.74
2023-05-12T12:33:16.869Z,22.57
2023-05-12T12:35:45.826Z,21.38
2023-05-12T12:38:13.206Z,22.18
2023-05-12T12:40:40.803Z,22.71
2023-05-12T12:43:08.055Z,23.13
2023-05-12T12:45:38.734Z,23.30
2023-05-12T12:48:07.056Z,24.28
2023-05-12T12:50:36.914Z,23.74
2023-05-12T12:53:07.442Z,24.30
2023-05-12T12:55:39.112Z,23.73
2023-05-12T12:58:07.235Z,24.03
2023-05-12T13:00:39.352Z,24.07
2023-05-12T13:03:08.982Z,24.64
2023-05-12T13:05:37.379Z,24.78
2023-05-12T13:08:10.633Z,24.10
2023-05-12T13:10:39.122Z,23.70
2023-05-12T13:13:06.505Z,24.29
2023-05-12T13:18:49.626Z,24.01
2023-05-12T13:21:41.072Z,24.25
2023-05-12T13:26:53.458Z,23.72
2023-05-12T13:29:20.841Z,24.09
2023-05-12T13:32:15.006Z,24.39
2023-05-12T13:35:01.037Z,24.53
2023-05-12T13:37:29.816Z,24.65
2023-05-12T13:40:10.484Z,24.05
2023-05-12T13:42:40.913Z,24.28
2023-05-12T13:45:09.482Z,24.65
2023-05-12T13:47:40.948Z,23.74
2023-05-12T13:50:09.213Z,24.15
2023-05-12T13:52:36.279Z,24.60
2023-05-12T13:55:10.982Z,24.63
2023-05-12T13:57:40.573Z,24.17
2023-05-12T14:00:11.316Z,24.92
2023-05-12T14:02:41.096Z,24.66
2023-05-12T14:05:09.331Z,24.26
2023-05-12T14:07:36.606Z,24.39
2023-05-12T14:10:06.111Z,24.48
2023-05-12T14:12:37.399Z,24.78
2023-05-12T14:15:24.007Z,25.66
2023-05-12T14:17:58.731Z,25.98
2023-05-12T14:20:27.866Z,26.78
2023-05-12T14:22:56.829Z,25.42
2023-05-12T14:25:25.348Z,25.55
2023-05-12T14:27:55.881Z,26.17
2023-05-12T14:30:23.934Z,26.18
2023-05-12T14:32:51.400Z,26.04
2023-05-12T14:35:20.116Z,26.38
2023-05-12T14:37:49.396Z,26.05
2023-05-12T14:40:18.641Z,26.05
2023-05-12T14:42:54.479Z,26.17
2023-05-12T14:45:22.550Z,25.99
2023-05-12T14:47:50.091Z,26.50
2023-05-12T14:50:21.016Z,26.77
2023-05-12T14:52:52.523Z,26.63
2023-05-12T14:55:23.350Z,26.90
2023-05-12T14:57:50.655Z,26.64
2023-05-12T15:00:30.183Z,25.94
2023-05-12T15:02:57.806Z,26.28
2023-05-12T15:05:41.189Z,26.48
2023-05-12T15:10:59.468Z,26.52
2023-05-12T15:13:26.999Z,26.74
2023-05-12T15:15:58.694Z,26.14
2023-05-12T15:18:28.453Z,26.45
2023-05-12T15:21:04.195Z,26.96
2023-05-12T15:23:35.606Z,27.40
2023-05-12T15:26:27.249Z,27.34
2023-05-12T15:28:59.072Z,27.59
2023-05-12T15:34:11.571Z,27.76
2023-05-12T15:36:39.567Z,27.14
2023-05-12T15:39:08.611Z,27.27
2023-05-12T15:41:38.187Z,26.98
2023-05-12T15:44:07.207Z,26.99
2023-05-12T15:46:36.439Z,27.13
2023-05-12T15:49:08.114Z,27.18
2023-05-12T15:51:51.744Z,28.16
2023-05-12T15:54:19.784Z,27.55
2023-05-12T15:56:51.145Z,28.18
2023-05-12T15:59:20.635Z,28.76
2023-05-12T16:01:50.910Z,28.61
2023-05-12T16:04:18.549Z,28.72
2023-05-12T16:06:46.463Z,28.98
2023-05-12T16:09:16.353Z,28.91
2023-05-12T16:11:46.213Z,29.50
2023-05-12T16:14:16.914Z,29.51
2023-05-12T16:16:59.849Z,29.68
2023-05-12T16:19:27.422Z,29.61
2023-05-12T16:21:58.043Z,30.17
2023-05-12T16:24:28.590Z,30.70
2023-05-12T16:26:56.763Z,30.83
2023-05-12T16:29:24.880Z,30.81
2023-05-12T16:31:52.106Z,31.32
2023-05-12T16:34:29.482Z,31.15
2023-05-12T16:36:57.081Z,31.36
2023-05-12T16:39:38.943Z,31.17
2023-05-12T16:42:07.723Z,31.97
2023-05-12T16:44:37.085Z,32.40
2023-05-12T16:47:04.771Z,32.93
2023-05-12T16:49:32.436Z,33.44
2023-05-12T16:51:59.692Z,33.46
2023-05-12T16:54:31.902Z,34.05
2023-05-12T16:57:03.488Z,34.51
2023-05-12T16:59:32.633Z,34.45
2023-05-12T17:02:06.441Z,34.24
2023-05-12T17:04:34.653Z,34.15
2023-05-12T17:07:05.105Z,34.13
2023-05-12T17:09:35.227Z,34.51
2023-05-12T17:12:04.825Z,34.36
2023-05-12T17:14:34.751Z,34.82
2023-05-12T17:17:02.462Z,35.03
2023-05-12T17:19:33.809Z,35.26
2023-05-12T17:22:01.413Z,35.67
2023-05-12T17:24:29.631Z,36.08
2023-05-12T17:26:57.720Z,35.89
2023-05-12T17:29:39.728Z,36.27
2023-05-12T17:32:07.795Z,36.72
2023-05-12T17:34:38.260Z,37.15
2023-05-12T17:37:06.625Z,37.03
2023-05-12T17:39:34.383Z,37.35
2023-05-12T17:42:13.503Z,37.71
2023-05-12T17:44:43.381Z,37.84
2023-05-12T17:47:13.995Z,38.25
2023-05-12T17:49:42.610Z,38.15
2023-05-12T17:52:19.732Z,38.55
2023-05-12T17:54:47.260Z,38.32
2023-05-12T17:57:15.812Z,38.48
2023-05-12T17:59:43.673Z,38.58
2023-05-12T18:02:13.555Z,38.47
2023-05-12T18:04:41.905Z,38.91
2023-05-12T18:07:09.481Z,38.79
2023-05-12T18:09:38.981Z,39.19
2023-05-12T18:12:10.150Z,38.84
2023-05-12T18:14:37.523Z,39.12
2023-05-12T18:17:05.483Z,39.32
2023-05-12T18:19:32.740Z,39.32
2023-05-12T18:22:49.341Z,39.46
2023-05-12T18:24:53.028Z,39.28
2023-05-12T18:27:20.662Z,39.26
2023-05-12T18:29:47.786Z,39.74
2023-05-12T18:35:39.377Z,40.14
2023-05-12T18:38:13.211Z,39.77
2023-05-12T18:40:40.476Z,39.67
2023-05-12T18:43:07.963Z,39.53
2023-05-12T18:45:37.795Z,39.92
2023-05-12T18:48:05.781Z,39.89
2023-05-12T18:50:32.904Z,39.49
2023-05-12T18:53:00.575Z,39.90
2023-05-12T18:55:32.069Z,39.87
2023-05-12T18:57:59.641Z,40.00
2023-05-12T19:00:32.475Z,39.73
2023-05-12T19:03:03.186Z,39.64
2023-05-12T19:05:33.938Z,40.02
2023-05-12T19:08:02.501Z,39.83
2023-05-12T19:10:38.549Z,40.50
2023-05-12T19:13:07.258Z,40.15
2023-05-12T19:15:34.656Z,40.38
2023-05-12T19:18:02.153Z,40.47
2023-05-12T19:20:30.774Z,40.76
2023-05-12T19:22:59.859Z,40.84
2023-05-12T19:25:27.236Z,40.65
2023-05-12T19:27:55.037Z,41.38
2023-05-12T19:30:23.891Z,42.25
2023-05-12T19:32:51.822Z,42.59
2023-05-12T19:35:19.666Z,43.67
2023-05-12T19:37:47.453Z,43.41
2023-05-12T19:40:14.744Z,42.92
2023-05-12T19:42:42.751Z,43.77
2023-05-12T19:45:10.725Z,44.63
2023-05-12T19:47:38.338Z,45.34
2023-05-12T19:50:06.100Z,45.30
2023-05-12T19:52:34.575Z,46.10
2023-05-12T19:55:01.668Z,45.97
2023-05-12T19:57:32.052Z,45.92
2023-05-12T19:59:59.468Z,46.26
2023-05-12T20:02:30.953Z,45.84
2023-05-12T20:05:01.733Z,46.23
2023-05-12T20:07:29.438Z,54.17
2023-05-12T20:09:57.721Z,56.07
2023-05-12T20:12:25.287Z,56.83
2023-05-12T20:14:52.324Z,56.08
2023-05-12T20:17:21.883Z,56.72
2023-05-12T20:19:50.517Z,56.06
2023-05-12T20:22:20.756Z,56.83
2023-05-12T20:24:48.845Z,57.67
2023-05-12T20:27:19.253Z,57.63
2023-05-12T20:29:46.383Z,57.32
2023-05-12T20:32:15.154Z,57.20
2023-05-12T20:34:43.060Z,56.46
2023-05-12T20:37:11.000Z,56.63
2023-05-12T20:39:37.990Z,56.55
2023-05-12T20:42:06.438Z,56.78
2023-05-12T20:44:33.571Z,56.69
2023-05-12T20:47:03.298Z,56.41
2023-05-12T20:49:30.897Z,56.61
2023-05-12T20:51:58.355Z,56.70
2023-05-12T20:54:25.583Z,56.32
2023-05-12T20:56:53.150Z,56.25
2023-05-12T20:59:20.178Z,56.38
2023-05-12T21:01:47.739Z,56.62
2023-05-12T21:04:15.176Z,56.44
2023-05-12T21:06:43.745Z,56.04
2023-05-12T21:09:10.653Z,55.29
2023-05-12T21:11:39.345Z,54.93
2023-05-12T21:14:07.396Z,55.06
2023-05-12T21:16:35.368Z,55.42
2023-05-12T21:19:05.448Z,55.92
2023-05-12T21:21:32.905Z,55.48
2023-05-12T21:24:00.053Z,55.34
2023-05-12T21:26:43.846Z,55.14
2023-05-12T21:29:14.085Z,55.26
2023-05-12T21:31:41.460Z,54.68
2023-05-12T21:34:09.975Z,54.24
2023-05-12T21:36:37.336Z,55.26
2023-05-12T21:39:04.893Z,55.60
2023-05-12T21:41:32.685Z,55.33
2023-05-12T21:43:59.705Z,55.12
2023-05-12T21:46:27.242Z,55.46
2023-05-12T21:48:54.722Z,55.68
2023-05-12T21:51:22.113Z,55.87
2023-05-12T21:53:49.215Z,56.45
2023-05-12T21:56:19.372Z,57.31
2023-05-12T21:58:46.322Z,58.57
2023-05-12T22:01:15.367Z,58.40
2023-05-12T22:03:54.002Z,58.35
2023-05-12T22:06:35.648Z,58.29
2023-05-12T22:09:02.862Z,58.63
2023-05-12T22:11:30.171Z,59.39
2023-05-12T22:13:57.327Z,59.44
2023-05-12T22:16:31.168Z,59.51
2023-05-12T22:19:01.629Z,59.61
2023-05-12T22:21:29.046Z,58.89
2023-05-12T22:23:57.226Z,58.65
2023-05-12T22:26:24.515Z,58.24
2023-05-12T22:28:51.468Z,57.34
2023-05-12T22:31:18.878Z,57.45
2023-05-12T22:33:45.864Z,57.92
2023-05-12T22:36:13.135Z,57.97
2023-05-12T22:38:40.156Z,58.21
2023-05-12T22:41:07.398Z,57.94
2023-05-12T22:43:34.376Z,58.17
2023-05-12T22:46:01.640Z,57.89
2023-05-12T22:48:30.586Z,58.26
2023-05-12T22:50:59.336Z,57.80
2023-05-12T22:53:28.306Z,58.27
2023-05-12T22:55:55.858Z,58.39
2023-05-12T22:58:22.865Z,58.56
2023-05-12T23:00:50.192Z,58.65
2023-05-12T23:03:17.125Z,59.18
2023-05-12T23:05:44.422Z,59.39
2023-05-12T23:08:11.368Z,59.50
2023-05-12T23:10:38.638Z,59.95
2023-05-12T23:13:05.583Z,60.02
2023-05-12T23:15:32.891Z,59.63
2023-05-12T23:17:59.936Z,59.68
2023-05-12T23:20:27.462Z,59.79
2023-05-12T23:22:54.468Z,59.83
2023-05-12T23:25:21.978Z,59.86
2023-05-12T23:27:48.972Z,59.92
2023-05-12T23:30:16.757Z,60.00
2023-05-12T23:32:45.661Z,59.96
2023-05-12T23:35:14.081Z,60.16
2023-05-12T23:37:41.061Z,59.92
2023-05-12T23:40:08.900Z,59.84
2023-05-12T23:42:36.160Z,60.31
2023-05-12T23:45:03.677Z,60.70
2023-05-12T23:47:30.865Z,60.49
2023-05-12T23:49:58.321Z,60.54
2023-05-12T23:52:25.533Z,60.64
2023-05-12T23:54:53.276Z,60.43
2023-05-12T23:57:20.460Z,60.79
2023-05-12T23:59:48.795Z,60.78
